Time,TemperatureF,DewpointF,PressureIn,WindDirection,WindDirectionDegrees,WindSpeedMPH,WindSpeedGustMPH,Humidity,HourlyPrecipIn,Conditions,Clouds,dailyrainin,SolarRadiationWatts/m^2,SoftwareType,DateUTC
2013-08-15 00:05:00,50.1,47.0,30.10,WNW,283,2.3,2.3,89,0.00,CLR,FEW,0.00,0.0,WeatherDisplay:10.37,2013-08-15 05:05:00,
2013-08-15 00:10:00,49.9,46.8,30.10,WNW,283,2.3,0.0,89,0.00,CLR,FEW,0.00,0.0,WeatherDisplay:10.37,2013-08-15 05:10:00,
2013-08-15 00:15:00,49.8,47.0,30.10,WNW,283,0.0,2.0,90,0.00,CLR,FEW,0.00,0.0,WeatherDisplay:10.37,2013-08-15 05:15:00,
2013-08-15 00:20:00,49.6,46.8,30.10,WNW,283,1.0,2.0,90,0.00,CLR,FEW,0.00,0.0,WeatherDisplay:10.37,2013-08-15 05:20:00,
2013-08-15 00:25:00,49.5,46.7,30.10,WNW,283,2.3,2.3,90,0.00,CLR,FEW,0.00,0.0,WeatherDisplay:10.37,2013-08-15 05:25:00,
2013-08-15 00:30:00,49.5,46.7,30.10,WNW,283,3.5,3.5,90,0.00,CLR,FEW,0.00,0.0,WeatherDisplay:10.37,2013-08-15 05:30:00,
2013-08-15 00:35:00,49.4,46.6,30.10,WNW,283,3.0,3.0,90,0.00,CLR,FEW,0.00,0.0,WeatherDisplay:10.37,2013-08-15 05:35:00,
2013-08-15 00:40:00,49.2,46.7,30.10,WNW,283,3.5,3.5,91,0.00,CLR,FEW,0.00,0.0,WeatherDisplay:10.37,2013-08-15 05:40:00,
2013-08-15 00:45:00,49.2,46.7,30.10,WNW,283,3.5,3.5,91,0.00,CLR,FEW,0.00,0.0,WeatherDisplay:10.37,2013-08-15 05:45:00,
2013-08-15 00:51:00,49.2,46.7,30.10,WNW,283,3.0,3.0,91,0.00,CLR,FEW,0.00,0.0,WeatherDisplay:10.37,2013-08-15 05:51:00,
2013-08-15 00:56:00,49.1,46.6,30.10,WNW,283,2.3,0.0,91,0.00,CLR,FEW,0.00,0.0,WeatherDisplay:10.37,2013-08-15 05:56:00,
2013-08-15 01:01:00,49.1,46.9,30.10,WNW,283,1.2,1.2,92,0.00,CLR,FEW,0.00,0.0,WeatherDisplay:10.37,2013-08-15 06:01:00,
2013-08-15 01:06:00,49.1,46.9,30.10,WNW,283,2.3,2.3,92,0.00,CLR,FEW,0.00,0.0,WeatherDisplay:10.37,2013-08-15 06:06:00,
2013-08-15 01:11:00,49.1,46.9,30.10,WNW,283,1.2,1.2,92,0.00,CLR,FEW,0.00,0.0,WeatherDisplay:10.37,2013-08-15 06:11:00,
2013-08-15 01:16:00,49.1,46.9,30.10,WNW,283,2.3,2.3,92,0.00,CLR,FEW,0.00,0.0,WeatherDisplay:10.37,2013-08-15 06:16:00,
2013-08-15 01:21:00,49.1,47.2,30.10,WNW,283,3.5,3.5,93,0.00,CLR,FEW,0.00,0.0,WeatherDisplay:10.37,2013-08-15 06:21:00,
2013-08-15 01:26:00,49.1,47.2,30.10,WNW,283,3.5,3.5,93,0.00,CLR,FEW,0.00,0.0,WeatherDisplay:10.37,2013-08-15 06:26:00,
2013-08-15 01:32:00,49.1,47.2,30.10,WNW,283,3.5,3.5,93,0.00,CLR,FEW,0.00,0.0,WeatherDisplay:10.37,2013-08-15 06:32:00,
2013-08-15 01:37:00,49.1,47.2,30.10,WNW,283,0.0,0.0,93,0.00,CLR,FEW,0.00,0.0,WeatherDisplay:10.37,2013-08-15 06:37:00,
2013-08-15 01:42:00,49.1,47.2,30.09,WNW,283,1.2,0.0,93,0.00,CLR,FEW,0.00,0.0,WeatherDisplay:10.37,2013-08-15 06:42:00,
2013-08-15 01:47:00,49.1,47.2,30.10,WNW,283,2.3,2.3,93,0.00,CLR,FEW,0.00,0.0,WeatherDisplay:10.37,2013-08-15 06:47:00,
2013-08-15 01:52:00,49.1,47.2,30.09,WNW,283,3.5,3.5,93,0.00,CLR,FEW,0.00,0.0,WeatherDisplay:10.37,2013-08-15 06:52:00,
2013-08-15 01:57:00,48.9,47.0,30.09,WNW,283,2.3,2.3,93,0.00,CLR,FEW,0.00,0.0,WeatherDisplay:10.37,2013-08-15 06:57:00,
2013-08-15 02:02:00,48.9,47.0,30.09,WNW,283,3.5,3.5,93,0.00,CLR,FEW,0.00,0.0,WeatherDisplay:10.37,2013-08-15 07:02:00,
2013-08-15 02:08:00,48.8,46.6,30.09,WNW,283,2.0,2.0,92,0.00,CLR,FEW,0.00,0.0,WeatherDisplay:10.37,2013-08-15 07:08:00,
2013-08-15 02:13:00,48.8,46.6,30.09,WNW,283,1.2,1.2,92,0.00,CLR,FEW,0.00,0.0,WeatherDisplay:10.37,2013-08-15 07:13:00,
2013-08-15 02:18:00,48.6,46.4,30.09,WNW,283,2.0,2.0,92,0.00,CLR,FEW,0.00,0.0,WeatherDisplay:10.37,2013-08-15 07:18:00,
2013-08-15 02:23:00,48.5,46.3,30.09,WNW,283,2.3,2.3,92,0.00,CLR,FEW,0.00,0.0,WeatherDisplay:10.37,2013-08-15 07:23:00,
2013-08-15 02:28:00,48.3,46.1,30.09,WNW,283,3.5,3.5,92,0.00,CLR,FEW,0.00,0.0,WeatherDisplay:10.37,2013-08-15 07:28:00,
2013-08-15 02:33:00,48.2,46.0,30.09,WNW,283,2.3,2.3,92,0.00,CLR,FEW,0.00,0.0,WeatherDisplay:10.37,2013-08-15 07:33:00,
2013-08-15 02:38:00,48.2,46.0,30.09,WNW,283,2.3,2.3,92,0.00,CLR,FEW,0.00,0.0,WeatherDisplay:10.37,2013-08-15 07:38:00,
2013-08-15 02:43:00,48.0,45.8,30.09,WNW,283,3.5,3.5,92,0.00,CLR,FEW,0.00,0.0,WeatherDisplay:10.37,2013-08-15 07:43:00,
2013-08-15 02:49:00,48.0,45.8,30.09,WNW,283,4.0,4.0,92,0.00,CLR,FEW,0.00,0.0,WeatherDisplay:10.37,2013-08-15 07:49:00,
2013-08-15 02:54:00,48.0,45.8,30.09,WNW,283,3.5,3.5,92,0.00,CLR,FEW,0.00,0.0,WeatherDisplay:10.37,2013-08-15 07:54:00,
2013-08-15 02:59:00,48.0,45.8,30.09,WNW,283,2.3,2.3,92,0.00,CLR,FEW,0.00,0.0,WeatherDisplay:10.37,2013-08-15 07:59:00,
2013-08-15 03:04:00,48.0,46.1,30.09,WNW,283,3.5,3.5,93,0.00,CLR,FEW,0.00,0.0,WeatherDisplay:10.37,2013-08-15 08:04:00,
2013-08-15 03:09:00,48.0,46.1,30.09,WNW,283,6.0,6.0,93,0.00,CLR,FEW,0.00,0.0,WeatherDisplay:10.37,2013-08-15 08:09:00,
2013-08-15 03:14:00,48.0,46.1,30.09,West,277,4.0,4.0,93,0.00,CLR,FEW,0.00,0.0,WeatherDisplay:10.37,2013-08-15 08:14:00,
2013-08-15 03:19:00,48.2,46.6,30.09,West,277,4.0,4.0,94,0.00,CLR,FEW,0.00,0.0,WeatherDisplay:10.37,2013-08-15 08:19:00,
2013-08-15 03:25:00,48.2,46.6,30.09,West,277,4.0,4.0,94,0.00,CLR,FEW,0.00,0.0,WeatherDisplay:10.37,2013-08-15 08:25:00,
2013-08-15 03:30:00,48.3,46.7,30.09,West,277,3.5,3.5,94,0.00,CLR,FEW,0.00,0.0,WeatherDisplay:10.37,2013-08-15 08:30:00,
2013-08-15 03:35:00,48.5,47.1,30.09,West,277,3.0,5.0,95,0.00,CLR,FEW,0.00,0.0,WeatherDisplay:10.37,2013-08-15 08:35:00,
2013-08-15 03:40:00,48.5,47.1,30.09,West,277,3.5,3.5,95,0.00,CLR,FEW,0.00,0.0,WeatherDisplay:10.37,2013-08-15 08:40:00,
2013-08-15 03:45:00,48.6,47.2,30.09,West,277,2.0,5.0,95,0.00,CLR,FEW,0.00,0.0,WeatherDisplay:10.37,2013-08-15 08:45:00,
2013-08-15 03:50:00,48.8,47.4,30.09,West,277,3.5,3.5,95,0.00,CLR,FEW,0.00,0.0,WeatherDisplay:10.37,2013-08-15 08:50:00,
2013-08-15 03:55:00,48.8,47.4,30.09,West,277,2.0,5.0,95,0.00,CLR,FEW,0.00,0.0,WeatherDisplay:10.37,2013-08-15 08:55:00,
2013-08-15 04:00:00,48.8,47.4,30.09,West,277,1.0,4.0,95,0.00,CLR,FEW,0.00,0.0,WeatherDisplay:10.37,2013-08-15 09:00:00,
2013-08-15 04:05:00,48.9,47.5,30.09,West,277,2.0,3.0,95,0.00,CLR,FEW,0.00,0.0,WeatherDisplay:10.37,2013-08-15 09:05:00,
2013-08-15 04:10:00,48.9,47.5,30.09,West,277,1.0,3.0,95,0.00,CLR,FEW,0.00,0.0,WeatherDisplay:10.37,2013-08-15 09:10:00,
2013-08-15 04:15:00,48.9,47.5,30.09,West,277,4.0,4.0,95,0.00,CLR,FEW,0.00,0.0,WeatherDisplay:10.37,2013-08-15 09:15:00,
2013-08-15 04:20:00,48.8,47.4,30.09,West,277,3.5,3.5,95,0.00,CLR,FEW,0.00,0.0,WeatherDisplay:10.37,2013-08-15 09:20:00,
2013-08-15 04:25:00,48.8,47.4,30.09,West,277,2.3,2.3,95,0.00,CLR,FEW,0.00,0.0,WeatherDisplay:10.37,2013-08-15 09:25:00,
2013-08-15 04:30:00,48.8,47.4,30.09,West,277,2.3,2.3,95,0.00,CLR,FEW,0.00,0.0,WeatherDisplay:10.37,2013-08-15 09:30:00,
2013-08-15 04:35:00,48.6,47.0,30.09,West,277,3.5,3.5,94,0.00,CLR,FEW,0.00,0.0,WeatherDisplay:10.37,2013-08-15 09:35:00,
2013-08-15 04:41:00,48.5,46.9,30.09,West,277,3.5,3.5,94,0.00,CLR,FEW,0.00,0.0,WeatherDisplay:10.37,2013-08-15 09:41:00,
2013-08-15 04:46:00,48.5,46.9,30.09,West,277,2.3,2.3,94,0.00,CLR,FEW,0.00,0.0,WeatherDisplay:10.37,2013-08-15 09:46:00,
2013-08-15 04:52:00,48.3,46.7,30.09,West,277,3.5,3.5,94,0.00,CLR,FEW,0.00,0.0,WeatherDisplay:10.37,2013-08-15 09:52:00,
2013-08-15 04:57:00,48.2,46.3,30.09,West,277,3.5,3.5,93,0.00,CLR,FEW,0.00,0.0,WeatherDisplay:10.37,2013-08-15 09:57:00,
2013-08-15 05:03:00,48.0,46.1,30.09,West,277,3.5,3.5,93,0.00,CLR,FEW,0.00,0.0,WeatherDisplay:10.37,2013-08-15 10:03:00,
2013-08-15 05:08:00,47.9,46.0,30.09,West,277,3.5,3.5,93,0.00,CLR,FEW,0.00,0.0,WeatherDisplay:10.37,2013-08-15 10:08:00,
2013-08-15 05:13:00,47.7,45.8,30.09,West,277,4.0,4.0,93,0.00,CLR,FEW,0.00,0.0,WeatherDisplay:10.37,2013-08-15 10:13:00,
2013-08-15 05:21:00,47.6,45.7,30.09,West,277,3.5,3.5,93,0.00,CLR,FEW,0.00,0.0,WeatherDisplay:10.37,2013-08-15 10:21:00,
2013-08-15 05:28:00,47.4,45.5,30.09,West,277,3.5,3.5,93,0.00,CLR,FEW,0.00,0.0,WeatherDisplay:10.37,2013-08-15 10:28:00,
2013-08-15 05:33:00,47.3,45.4,30.09,West,277,3.5,3.5,93,0.00,CLR,FEW,0.00,0.0,WeatherDisplay:10.37,2013-08-15 10:33:00,
2013-08-15 05:40:00,47.3,45.4,30.09,West,277,3.5,3.5,93,0.00,CLR,FEW,0.00,0.0,WeatherDisplay:10.37,2013-08-15 10:40:00,
2013-08-15 05:45:00,47.1,44.9,30.09,West,277,0.0,3.0,92,0.00,CLR,FEW,0.00,0.0,WeatherDisplay:10.37,2013-08-15 10:45:00,
2013-08-15 05:50:00,47.0,44.8,30.09,West,277,2.3,2.3,92,0.00,CLR,FEW,0.00,0.0,WeatherDisplay:10.37,2013-08-15 10:50:00,
2013-08-15 05:55:00,46.8,44.6,30.09,West,277,0.0,0.0,92,0.00,CLR,FEW,0.00,0.0,WeatherDisplay:10.37,2013-08-15 10:55:00,
2013-08-15 06:00:00,46.8,44.6,30.09,West,277,3.5,3.5,92,0.00,CLR,FEW,0.00,0.0,WeatherDisplay:10.37,2013-08-15 11:00:00,
2013-08-15 06:05:00,46.7,44.5,30.09,West,277,3.5,3.5,92,0.00,CLR,FEW,0.00,0.0,WeatherDisplay:10.37,2013-08-15 11:05:00,
2013-08-15 06:10:00,46.5,44.3,30.09,West,277,1.2,1.2,92,0.00,CLR,FEW,0.00,0.0,WeatherDisplay:10.37,2013-08-15 11:10:00,
2013-08-15 06:16:00,46.5,44.3,30.09,West,277,2.3,2.3,92,0.00,CLR,FEW,0.00,0.0,WeatherDisplay:10.37,2013-08-15 11:16:00,
2013-08-15 06:21:00,46.4,44.5,30.09,West,277,3.5,3.5,93,0.00,CLR,FEW,0.00,0.0,WeatherDisplay:10.37,2013-08-15 11:21:00,
2013-08-15 06:26:00,46.4,44.5,30.09,West,277,4.6,4.6,93,0.00,CLR,FEW,0.00,0.0,WeatherDisplay:10.37,2013-08-15 11:26:00,
2013-08-15 06:33:00,46.4,44.5,30.09,West,277,3.5,3.5,93,0.00,CLR,FEW,0.00,0.0,WeatherDisplay:10.37,2013-08-15 11:33:00,
2013-08-15 06:39:00,46.4,44.5,30.09,West,277,4.0,4.0,93,0.00,CLR,FEW,0.00,0.0,WeatherDisplay:10.37,2013-08-15 11:39:00,
2013-08-15 06:45:00,46.4,44.8,30.09,West,277,3.5,3.5,94,0.00,CLR,FEW,0.00,0.0,WeatherDisplay:10.37,2013-08-15 11:45:00,
2013-08-15 06:50:00,46.5,44.9,30.10,West,277,4.6,4.6,94,0.00,CLR,FEW,0.00,0.0,WeatherDisplay:10.37,2013-08-15 11:50:00,
2013-08-15 06:55:00,46.5,44.9,30.10,West,277,3.0,4.0,94,0.00,CLR,FEW,0.00,0.0,WeatherDisplay:10.37,2013-08-15 11:55:00,
2013-08-15 07:00:00,46.5,44.9,30.10,West,277,3.0,5.0,94,0.00,CLR,FEW,0.00,0.0,WeatherDisplay:10.37,2013-08-15 12:00:00,
2013-08-15 07:05:00,46.7,45.1,30.10,West,277,3.0,5.0,94,0.00,CLR,FEW,0.00,0.0,WeatherDisplay:10.37,2013-08-15 12:05:00,
2013-08-15 07:10:00,46.7,45.3,30.10,West,277,4.0,4.0,95,0.00,CLR,FEW,0.00,0.0,WeatherDisplay:10.37,2013-08-15 12:10:00,
2013-08-15 07:15:00,46.8,45.4,30.10,West,277,2.0,7.0,95,0.00,CLR,FEW,0.00,0.0,WeatherDisplay:10.37,2013-08-15 12:15:00,
2013-08-15 07:20:00,46.8,45.4,30.10,West,277,4.0,4.0,95,0.00,CLR,FEW,0.00,0.0,WeatherDisplay:10.37,2013-08-15 12:20:00,
2013-08-15 07:25:00,47.0,45.6,30.10,West,277,4.0,4.0,95,0.00,CLR,FEW,0.00,0.0,WeatherDisplay:10.37,2013-08-15 12:25:00,
2013-08-15 07:30:00,48.2,47.1,30.11,West,277,4.6,4.6,96,0.00,CLR,FEW,0.00,0.0,WeatherDisplay:10.37,2013-08-15 12:30:00,
2013-08-15 07:35:00,49.1,48.0,30.11,West,277,4.6,4.6,96,0.00,CLR,FEW,0.00,0.0,WeatherDisplay:10.37,2013-08-15 12:35:00,
2013-08-15 07:40:00,49.1,48.0,30.11,West,277,4.6,4.6,96,0.00,CLR,FEW,0.00,0.0,WeatherDisplay:10.37,2013-08-15 12:40:00,
2013-08-15 07:45:00,49.2,48.1,30.11,West,277,5.8,5.8,96,0.00,CLR,FEW,0.00,0.0,WeatherDisplay:10.37,2013-08-15 12:45:00,
2013-08-15 07:51:00,49.4,48.3,30.11,West,277,5.8,5.8,96,0.00,CLR,FEW,0.00,0.0,WeatherDisplay:10.37,2013-08-15 12:51:00,
2013-08-15 07:55:00,49.6,48.5,30.11,West,276,3.0,5.0,96,0.00,CLR,FEW,0.00,0.0,WeatherDisplay:10.37,2013-08-15 12:55:00,
2013-08-15 07:56:00,49.6,48.5,30.11,West,277,5.0,5.0,96,0.00,CLR,FEW,0.00,0.0,WeatherDisplay:10.37,2013-08-15 12:56:00,
2013-08-15 08:05:00,49.9,49.1,30.11,West,272,5.0,6.0,97,0.00,OVC,FEW,0.00,0.0,WeatherDisplay:10.37,2013-08-15 13:05:00,
2013-08-15 08:10:00,50.4,49.9,30.11,West,270,3.0,6.0,98,0.00,OVC,FEW,0.00,0.0,WeatherDisplay:10.37,2013-08-15 13:10:00,
2013-08-15 08:15:00,50.8,50.3,30.11,West,270,3.0,5.0,98,0.00,OVC,FEW,0.00,0.0,WeatherDisplay:10.37,2013-08-15 13:15:00,
2013-08-15 08:20:00,51.3,51.0,30.11,West,270,3.0,5.0,99,0.00,OVC,FEW,0.00,0.0,WeatherDisplay:10.37,2013-08-15 13:20:00,
2013-08-15 08:25:00,51.9,51.6,30.11,West,270,3.0,5.0,99,0.00,OVC,FEW,0.00,0.0,WeatherDisplay:10.37,2013-08-15 13:25:00,
2013-08-15 08:30:00,52.3,52.0,30.11,West,270,3.0,6.0,99,0.00,OVC,FEW,0.00,0.0,WeatherDisplay:10.37,2013-08-15 13:30:00,
2013-08-15 08:43:00,54.1,53.8,30.11,West,275,5.8,6.0,99,0.00,OVC,FEW,0.00,0.0,WeatherDisplay:10.37,2013-08-15 13:43:00,
2013-08-15 08:48:00,54.5,54.2,30.11,West,275,4.6,4.6,99,0.00,OVC,FEW,0.00,0.0,WeatherDisplay:10.37,2013-08-15 13:48:00,
2013-08-15 08:53:00,55.0,55.0,30.11,West,275,5.0,5.0,100,0.00,OVC,FEW,0.00,0.0,WeatherDisplay:10.37,2013-08-15 13:53:00,
2013-08-15 08:59:00,55.6,55.6,30.11,West,266,4.6,4.6,100,0.00,OVC,FEW,0.00,0.0,WeatherDisplay:10.37,2013-08-15 13:59:00,
2013-08-15 09:04:00,55.9,55.9,30.11,West,266,4.6,4.6,100,0.00,OVC,FEW,0.00,0.0,WeatherDisplay:10.37,2013-08-15 14:04:00,
2013-08-15 09:09:00,56.3,56.3,30.11,West,266,4.0,4.0,100,0.00,OVC,SCT,0.00,0.0,WeatherDisplay:10.37,2013-08-15 14:09:00,
2013-08-15 09:14:00,56.6,56.6,30.11,West,266,5.0,5.0,100,0.00,OVC,SCT,0.00,0.0,WeatherDisplay:10.37,2013-08-15 14:14:00,
2013-08-15 09:19:00,57.0,56.7,30.11,West,266,5.8,5.8,99,0.00,OVC,SCT,0.00,0.0,WeatherDisplay:10.37,2013-08-15 14:19:00,
2013-08-15 09:24:00,57.3,57.0,30.11,West,266,4.6,4.6,99,0.00,OVC,SCT,0.00,0.0,WeatherDisplay:10.37,2013-08-15 14:24:00,
2013-08-15 09:29:00,57.6,57.0,30.11,WSW,257,6.9,6.9,98,0.00,OVC,SCT,0.00,0.0,WeatherDisplay:10.37,2013-08-15 14:29:00,
2013-08-15 09:34:00,58.0,57.2,30.11,West,259,6.0,8.0,97,0.00,OVC,SCT,0.00,0.0,WeatherDisplay:10.37,2013-08-15 14:34:00,
2013-08-15 09:39:00,58.4,56.9,30.11,West,261,3.0,8.0,95,0.00,OVC,SCT,0.00,0.0,WeatherDisplay:10.37,2013-08-15 14:39:00,
2013-08-15 09:45:00,58.9,56.9,30.11,West,261,8.1,8.1,93,0.00,OVC,SCT,0.00,0.0,WeatherDisplay:10.37,2013-08-15 14:45:00,
2013-08-15 09:51:00,59.3,56.4,30.11,WSW,253,6.9,6.9,90,0.00,OVC,SCT,0.00,0.0,WeatherDisplay:10.37,2013-08-15 14:51:00,
2013-08-15 09:56:00,59.9,56.3,30.11,WSW,248,6.0,6.0,88,0.00,OVC,SCT,0.00,0.0,WeatherDisplay:10.37,2013-08-15 14:56:00,
2013-08-15 10:02:00,60.4,56.2,30.11,WSW,257,8.1,8.1,86,0.00,OVC,SCT,0.00,0.0,WeatherDisplay:10.37,2013-08-15 15:02:00,
2013-08-15 10:07:00,60.9,56.0,30.11,West,261,10.4,10.4,84,0.00,OVC,SCT,0.00,0.0,WeatherDisplay:10.37,2013-08-15 15:07:00,
2013-08-15 10:12:00,61.5,56.0,30.11,West,266,4.0,4.0,82,0.00,OVC,SCT,0.00,0.0,WeatherDisplay:10.37,2013-08-15 15:12:00,
2013-08-15 10:17:00,62.1,56.2,30.11,WSW,243,5.8,5.8,81,0.00,OVC,SCT,0.00,0.0,WeatherDisplay:10.37,2013-08-15 15:17:00,
2013-08-15 10:22:00,62.6,56.3,30.11,WSW,257,8.0,8.0,80,0.00,OVC,SCT,0.00,0.0,WeatherDisplay:10.37,2013-08-15 15:22:00,
2013-08-15 10:27:00,63.2,56.2,30.11,WSW,256,10.4,10.4,78,0.00,OVC,SCT,0.00,0.0,WeatherDisplay:10.37,2013-08-15 15:27:00,
2013-08-15 10:33:00,63.7,55.6,30.11,WSW,247,9.2,9.2,75,0.00,OVC,SCT,0.00,0.0,WeatherDisplay:10.37,2013-08-15 15:33:00,
2013-08-15 10:38:00,64.2,55.7,30.10,WSW,257,6.9,6.9,74,0.00,OVC,SCT,0.00,0.0,WeatherDisplay:10.37,2013-08-15 15:38:00,
2013-08-15 10:43:00,64.7,55.1,30.10,West,281,11.5,11.5,71,0.00,OVC,SCT,0.00,0.0,WeatherDisplay:10.37,2013-08-15 15:43:00,
2013-08-15 10:48:00,65.2,54.8,30.10,WSW,252,8.0,8.0,69,0.00,OVC,SCT,0.00,0.0,WeatherDisplay:10.37,2013-08-15 15:48:00,
2013-08-15 10:53:00,65.6,55.2,30.10,West,275,9.0,9.0,69,0.00,OVC,SCT,0.00,0.0,WeatherDisplay:10.37,2013-08-15 15:53:00,
2013-08-15 10:58:00,66.1,54.8,30.10,West,261,9.2,9.2,67,0.00,OVC,SCT,0.00,0.0,WeatherDisplay:10.37,2013-08-15 15:58:00,
2013-08-15 11:03:00,66.6,54.0,30.10,WSW,241,8.1,8.1,64,0.00,OVC,SCT,0.00,0.0,WeatherDisplay:10.37,2013-08-15 16:03:00,
2013-08-15 11:09:00,66.9,54.3,30.10,WSW,257,13.8,13.8,64,0.00,OVC,SCT,0.00,0.0,WeatherDisplay:10.37,2013-08-15 16:09:00,
2013-08-15 11:14:00,67.8,52.9,30.10,WNW,294,8.1,8.1,59,0.00,OVC,SCT,0.00,0.0,WeatherDisplay:10.37,2013-08-15 16:14:00,
2013-08-15 11:19:00,68.8,54.8,30.10,West,266,10.4,10.4,61,0.00,OVC,SCT,0.00,0.0,WeatherDisplay:10.37,2013-08-15 16:19:00,
2013-08-15 11:24:00,68.9,54.0,30.10,WSW,242,17.3,17.3,59,0.00,OVC,SCT,0.00,0.0,WeatherDisplay:10.37,2013-08-15 16:24:00,
2013-08-15 11:29:00,69.3,53.9,30.09,WNW,292,9.2,9.2,58,0.00,OVC,SCT,0.00,0.0,WeatherDisplay:10.37,2013-08-15 16:29:00,
2013-08-15 11:34:00,69.4,54.0,30.09,WSW,256,11.5,11.5,58,0.00,OVC,SCT,0.00,0.0,WeatherDisplay:10.37,2013-08-15 16:34:00,
2013-08-15 11:39:00,69.8,55.7,30.09,West,266,12.0,12.0,61,0.00,OVC,SCT,0.00,0.0,WeatherDisplay:10.37,2013-08-15 16:39:00,
2013-08-15 11:44:00,69.6,54.6,30.09,WSW,251,13.0,13.0,59,0.00,OVC,SCT,0.00,0.0,WeatherDisplay:10.37,2013-08-15 16:44:00,
2013-08-15 11:49:00,69.6,55.1,30.09,West,261,16.1,16.1,60,0.00,OVC,SCT,0.00,0.0,WeatherDisplay:10.37,2013-08-15 16:49:00,
2013-08-15 11:54:00,69.8,52.9,30.09,WSW,253,6.0,17.0,55,0.00,OVC,SCT,0.00,0.0,WeatherDisplay:10.37,2013-08-15 16:54:00,
2013-08-15 11:59:00,70.3,53.4,30.09,SW,235,16.1,16.1,55,0.00,OVC,SCT,0.00,0.0,WeatherDisplay:10.37,2013-08-15 16:59:00,
2013-08-15 12:04:00,70.0,54.1,30.09,WSW,258,10.0,15.0,57,0.00,OVC,SCT,0.00,0.0,WeatherDisplay:10.37,2013-08-15 17:04:00,
2013-08-15 12:09:00,69.6,52.2,30.09,West,268,7.0,17.0,54,0.00,OVC,SCT,0.00,0.0,WeatherDisplay:10.37,2013-08-15 17:09:00,
2013-08-15 12:14:00,69.5,52.2,30.09,West,265,7.0,14.0,54,0.00,OVC,SCT,0.00,0.0,WeatherDisplay:10.37,2013-08-15 17:14:00,
2013-08-15 12:19:00,69.9,52.0,30.09,West,273,3.0,12.0,53,0.00,OVC,SCT,0.00,0.0,WeatherDisplay:10.37,2013-08-15 17:19:00,
2013-08-15 12:25:00,70.6,52.6,30.09,West,261,9.0,9.0,53,0.00,OVC,SCT,0.00,0.0,WeatherDisplay:10.37,2013-08-15 17:25:00,
2013-08-15 12:30:00,70.4,52.4,30.09,WNW,295,11.5,11.5,53,0.00,OVC,SCT,0.00,0.0,WeatherDisplay:10.37,2013-08-15 17:30:00,
2013-08-15 12:35:00,70.1,51.1,30.09,NW,313,8.1,8.1,51,0.00,OVC,SCT,0.00,0.0,WeatherDisplay:10.37,2013-08-15 17:35:00,
2013-08-15 12:41:00,69.9,52.5,30.09,WNW,298,8.1,8.1,54,0.00,OVC,SCT,0.00,0.0,WeatherDisplay:10.37,2013-08-15 17:41:00,
2013-08-15 12:46:00,69.3,51.9,30.09,WNW,289,8.1,8.1,54,0.00,OVC,SCT,0.00,0.0,WeatherDisplay:10.37,2013-08-15 17:46:00,
2013-08-15 12:51:00,69.8,53.4,30.09,West,281,7.0,7.0,56,0.00,OVC,SCT,0.00,0.0,WeatherDisplay:10.37,2013-08-15 17:51:00,
2013-08-15 12:56:00,69.8,52.4,30.09,West,276,9.2,9.2,54,0.00,OVC,SCT,0.00,0.0,WeatherDisplay:10.37,2013-08-15 17:56:00,
2013-08-15 13:01:00,69.6,54.2,30.09,West,266,9.2,9.2,58,0.00,OVC,SCT,0.00,0.0,WeatherDisplay:10.37,2013-08-15 18:01:00,
2013-08-15 13:06:00,70.8,52.8,30.09,West,261,5.8,5.8,53,0.00,OVC,SCT,0.00,0.0,WeatherDisplay:10.37,2013-08-15 18:06:00,
2013-08-15 13:12:00,71.6,53.0,30.08,WSW,257,13.0,13.0,52,0.00,OVC,SCT,0.00,0.0,WeatherDisplay:10.37,2013-08-15 18:12:00,
2013-08-15 13:17:00,71.1,52.6,30.08,West,275,13.0,13.0,52,0.00,OVC,SCT,0.00,0.0,WeatherDisplay:10.37,2013-08-15 18:17:00,
2013-08-15 13:22:00,71.5,52.4,30.08,SW,235,9.2,9.2,51,0.00,OVC,SCT,0.00,0.0,WeatherDisplay:10.37,2013-08-15 18:22:00,
2013-08-15 13:27:00,71.8,50.5,30.08,WSW,246,10.4,10.4,47,0.00,OVC,SCT,0.00,0.0,WeatherDisplay:10.37,2013-08-15 18:27:00,
2013-08-15 13:33:00,72.5,53.3,30.08,WSW,257,12.7,12.7,51,0.00,OVC,SCT,0.00,0.0,WeatherDisplay:10.37,2013-08-15 18:33:00,
2013-08-15 13:38:00,72.3,52.1,30.08,WNW,295,13.8,13.8,49,0.00,OVC,SCT,0.00,0.0,WeatherDisplay:10.37,2013-08-15 18:38:00,
2013-08-15 13:43:00,72.5,49.9,30.08,NNW,348,6.9,6.9,45,0.00,OVC,SCT,0.00,0.0,WeatherDisplay:10.37,2013-08-15 18:43:00,
2013-08-15 13:49:00,72.3,52.1,30.08,NW,306,11.5,11.5,49,0.00,OVC,SCT,0.00,0.0,WeatherDisplay:10.37,2013-08-15 18:49:00,
2013-08-15 13:54:00,71.6,52.0,30.08,NW,304,10.4,10.4,50,0.00,OVC,SCT,0.00,0.0,WeatherDisplay:10.37,2013-08-15 18:54:00,
2013-08-15 13:59:00,71.5,53.5,30.08,NNW,343,9.2,9.2,53,0.00,OVC,SCT,0.00,0.0,WeatherDisplay:10.37,2013-08-15 18:59:00,
2013-08-15 14:05:00,72.4,51.1,30.08,NNW,337,6.0,12.0,47,0.00,OVC,SCT,0.00,0.0,WeatherDisplay:10.37,2013-08-15 19:05:00,
2013-08-15 14:10:00,72.7,51.3,30.08,West,266,11.5,11.5,47,0.00,OVC,SCT,0.00,0.0,WeatherDisplay:10.37,2013-08-15 19:10:00,
2013-08-15 14:15:00,72.0,52.9,30.07,West,266,11.0,11.0,51,0.00,OVC,SCT,0.00,0.0,WeatherDisplay:10.37,2013-08-15 19:15:00,
2013-08-15 14:20:00,71.6,53.0,30.08,NNW,331,11.5,11.5,52,0.00,OVC,SCT,0.00,0.0,WeatherDisplay:10.37,2013-08-15 19:20:00,
2013-08-15 14:26:00,71.3,52.2,30.08,WNW,302,10.4,10.4,51,0.00,OVC,SCT,0.00,0.0,WeatherDisplay:10.37,2013-08-15 19:26:00,
2013-08-15 14:32:00,72.0,53.4,30.08,WNW,301,11.5,11.5,52,0.00,OVC,SCT,0.00,0.0,WeatherDisplay:10.37,2013-08-15 19:32:00,
2013-08-15 14:37:00,71.6,54.1,30.07,West,266,12.7,12.7,54,0.00,OVC,SCT,0.00,0.0,WeatherDisplay:10.37,2013-08-15 19:37:00,
2013-08-15 14:42:00,71.1,52.0,30.07,WNW,287,11.5,11.5,51,0.00,OVC,SCT,0.00,0.0,WeatherDisplay:10.37,2013-08-15 19:42:00,
2013-08-15 14:47:00,71.5,53.5,30.07,WNW,286,10.4,10.4,53,0.00,OVC,SCT,0.00,0.0,WeatherDisplay:10.37,2013-08-15 19:47:00,
2013-08-15 14:52:00,72.0,51.2,30.07,WNW,288,6.9,6.9,48,0.00,OVC,SCT,0.00,0.0,WeatherDisplay:10.37,2013-08-15 19:52:00,
2013-08-15 14:57:00,72.3,52.6,30.07,WNW,282,3.5,3.5,50,0.00,OVC,SCT,0.00,0.0,WeatherDisplay:10.37,2013-08-15 19:57:00,
2013-08-15 15:03:00,72.8,53.6,30.07,WSW,241,11.5,11.5,51,0.00,OVC,SCT,0.00,0.0,WeatherDisplay:10.37,2013-08-15 20:03:00,
2013-08-15 15:09:00,72.8,52.5,30.07,West,266,10.4,10.4,49,0.00,OVC,SCT,0.00,0.0,WeatherDisplay:10.37,2013-08-15 20:09:00,
2013-08-15 15:14:00,73.0,53.3,30.07,West,278,10.0,17.0,50,0.00,OVC,SCT,0.00,0.0,WeatherDisplay:10.37,2013-08-15 20:14:00,
2013-08-15 15:20:00,72.5,52.2,30.07,WNW,283,13.8,13.8,49,0.00,OVC,SCT,0.00,0.0,WeatherDisplay:10.37,2013-08-15 20:20:00,
2013-08-15 15:25:00,72.1,51.3,30.07,West,271,13.8,13.8,48,0.00,OVC,SCT,0.00,0.0,WeatherDisplay:10.37,2013-08-15 20:25:00,
2013-08-15 15:31:00,72.3,50.9,30.07,West,281,11.0,11.0,47,0.00,OVC,SCT,0.00,0.0,WeatherDisplay:10.37,2013-08-15 20:31:00,
2013-08-15 15:36:00,72.7,51.9,30.07,West,279,10.4,10.4,48,0.00,OVC,SCT,0.00,0.0,WeatherDisplay:10.37,2013-08-15 20:36:00,
2013-08-15 15:41:00,72.7,54.6,30.07,WSW,251,13.8,13.8,53,0.00,OVC,SCT,0.00,0.0,WeatherDisplay:10.37,2013-08-15 20:41:00,
2013-08-15 15:46:00,72.3,53.7,30.07,WSW,257,13.8,13.8,52,0.00,OVC,SCT,0.00,0.0,WeatherDisplay:10.37,2013-08-15 20:46:00,
2013-08-15 15:51:00,72.5,52.2,30.06,WSW,251,13.0,13.0,49,0.00,OVC,SCT,0.00,0.0,WeatherDisplay:10.37,2013-08-15 20:51:00,
2013-08-15 15:56:00,72.5,53.3,30.06,WSW,255,10.4,10.4,51,0.00,OVC,SCT,0.00,0.0,WeatherDisplay:10.37,2013-08-15 20:56:00,
2013-08-15 16:01:00,72.7,53.5,30.06,SW,234,6.0,6.0,51,0.00,OVC,SCT,0.00,0.0,WeatherDisplay:10.37,2013-08-15 21:01:00,
2013-08-15 16:07:00,73.2,53.4,30.06,WSW,256,11.5,11.5,50,0.00,OVC,SCT,0.00,0.0,WeatherDisplay:10.37,2013-08-15 21:07:00,
2013-08-15 16:12:00,73.0,51.0,30.07,NW,308,8.1,8.1,46,0.00,OVC,SCT,0.00,0.0,WeatherDisplay:10.37,2013-08-15 21:12:00,
2013-08-15 16:17:00,73.0,52.1,30.06,West,276,8.1,8.1,48,0.00,OVC,SCT,0.00,0.0,WeatherDisplay:10.37,2013-08-15 21:17:00,
2013-08-15 16:22:00,72.8,52.5,30.06,WNW,285,10.4,10.4,49,0.00,OVC,SCT,0.00,0.0,WeatherDisplay:10.37,2013-08-15 21:22:00,
2013-08-15 16:27:00,73.2,50.6,30.06,WNW,300,6.9,6.9,45,0.00,OVC,SCT,0.00,0.0,WeatherDisplay:10.37,2013-08-15 21:27:00,
2013-08-15 16:32:00,73.2,54.0,30.06,SW,230,11.5,11.5,51,0.00,OVC,SCT,0.00,0.0,WeatherDisplay:10.37,2013-08-15 21:32:00,
2013-08-15 16:37:00,73.2,52.9,30.06,WSW,250,12.7,12.7,49,0.00,OVC,SCT,0.00,0.0,WeatherDisplay:10.37,2013-08-15 21:37:00,
2013-08-15 16:42:00,73.2,50.0,30.06,West,266,3.5,3.5,44,0.00,OVC,SCT,0.00,0.0,WeatherDisplay:10.37,2013-08-15 21:42:00,
2013-08-15 16:48:00,73.2,51.2,30.06,West,271,5.8,5.8,46,0.00,OVC,SCT,0.00,0.0,WeatherDisplay:10.37,2013-08-15 21:48:00,
2013-08-15 16:53:00,73.3,51.8,30.06,WNW,295,9.2,9.2,47,0.00,OVC,SCT,0.00,0.0,WeatherDisplay:10.37,2013-08-15 21:53:00,
2013-08-15 16:58:00,73.3,53.5,30.06,WSW,251,7.0,7.0,50,0.00,OVC,SCT,0.00,0.0,WeatherDisplay:10.37,2013-08-15 21:58:00,
2013-08-15 17:03:00,73.2,53.4,30.06,WSW,250,10.0,10.0,50,0.00,OVC,SCT,0.00,0.0,WeatherDisplay:10.37,2013-08-15 22:03:00,
2013-08-15 17:09:00,73.2,53.4,30.06,West,266,6.0,6.0,50,0.00,OVC,SCT,0.00,0.0,WeatherDisplay:10.37,2013-08-15 22:09:00,
2013-08-15 17:14:00,73.2,52.3,30.06,WNW,285,9.2,9.2,48,0.00,OVC,SCT,0.00,0.0,WeatherDisplay:10.37,2013-08-15 22:14:00,
2013-08-15 17:19:00,73.3,52.4,30.06,NNW,333,11.5,11.5,48,0.00,OVC,SCT,0.00,0.0,WeatherDisplay:10.37,2013-08-15 22:19:00,
2013-08-15 17:24:00,73.2,51.2,30.06,WNW,301,6.0,6.0,46,0.00,OVC,SCT,0.00,0.0,WeatherDisplay:10.37,2013-08-15 22:24:00,
2013-08-15 17:29:00,73.0,52.7,30.06,WNW,301,3.5,3.5,49,0.00,OVC,SCT,0.00,0.0,WeatherDisplay:10.37,2013-08-15 22:29:00,
2013-08-15 17:34:00,72.7,54.1,30.06,WNW,301,1.2,1.2,52,0.00,OVC,SCT,0.00,0.0,WeatherDisplay:10.37,2013-08-15 22:34:00,
2013-08-15 17:39:00,72.8,52.5,30.06,NW,315,5.0,5.0,49,0.00,OVC,SCT,0.00,0.0,WeatherDisplay:10.37,2013-08-15 22:39:00,
2013-08-15 17:44:00,72.7,54.1,30.06,NW,306,2.0,6.0,52,0.00,OVC,SCT,0.00,0.0,WeatherDisplay:10.37,2013-08-15 22:44:00,
2013-08-15 17:49:00,72.5,55.4,30.06,NW,310,5.0,6.0,55,0.00,OVC,SCT,0.00,0.0,WeatherDisplay:10.37,2013-08-15 22:49:00,
2013-08-15 17:54:00,72.1,54.0,30.06,NW,318,2.0,6.0,53,0.00,OVC,SCT,0.00,0.0,WeatherDisplay:10.37,2013-08-15 22:54:00,
2013-08-15 17:59:00,71.8,57.1,30.06,NW,320,2.0,5.0,60,0.00,OVC,SCT,0.00,0.0,WeatherDisplay:10.37,2013-08-15 22:59:00,
2013-08-15 18:05:00,71.3,55.3,30.06,NNW,331,3.5,3.5,57,0.00,OVC,SCT,0.00,0.0,WeatherDisplay:10.37,2013-08-15 23:05:00,
2013-08-15 18:10:00,71.3,55.3,30.06,NNW,331,2.3,2.3,57,0.00,OVC,SCT,0.00,0.0,WeatherDisplay:10.37,2013-08-15 23:10:00,
2013-08-15 18:15:00,71.6,57.4,30.06,NNW,331,2.3,2.3,61,0.00,OVC,SCT,0.00,0.0,WeatherDisplay:10.37,2013-08-15 23:15:00,
2013-08-15 18:20:00,71.3,57.6,30.06,NNW,331,1.2,1.2,62,0.00,OVC,SCT,0.00,0.0,WeatherDisplay:10.37,2013-08-15 23:20:00,
2013-08-15 18:26:00,71.3,56.2,30.06,NNW,331,3.5,3.5,59,0.00,OVC,SCT,0.00,0.0,WeatherDisplay:10.37,2013-08-15 23:26:00,
2013-08-15 18:31:00,71.8,52.7,30.06,NNW,331,2.3,2.3,51,0.00,OVC,SCT,0.00,0.0,WeatherDisplay:10.37,2013-08-15 23:31:00,
2013-08-15 18:36:00,71.6,54.6,30.06,NW,305,5.8,5.8,55,0.00,OVC,SCT,0.00,0.0,WeatherDisplay:10.37,2013-08-15 23:36:00,
2013-08-15 18:41:00,71.6,54.6,30.07,NW,314,6.9,6.9,55,0.00,OVC,SCT,0.00,0.0,WeatherDisplay:10.37,2013-08-15 23:41:00,
2013-08-15 18:46:00,71.3,55.8,30.06,NW,320,1.2,1.2,58,0.00,OVC,SCT,0.00,0.0,WeatherDisplay:10.37,2013-08-15 23:46:00,
2013-08-15 18:51:00,70.1,56.5,30.07,NW,320,2.3,2.3,62,0.00,OVC,SCT,0.00,0.0,WeatherDisplay:10.37,2013-08-15 23:51:00,
2013-08-15 18:56:00,69.6,56.9,30.06,NW,320,4.0,4.0,64,0.00,OVC,SCT,0.00,0.0,WeatherDisplay:10.37,2013-08-15 23:56:00,
2013-08-15 19:02:00,69.3,56.6,30.06,NW,320,3.5,3.5,64,0.00,,SCT,0.00,0.0,WeatherDisplay:10.37,2013-08-16 00:02:00,
2013-08-15 19:07:00,68.8,57.0,30.06,NW,320,1.2,1.2,66,0.00,,SCT,0.00,0.0,WeatherDisplay:10.37,2013-08-16 00:07:00,
2013-08-15 19:12:00,68.4,57.4,30.07,NW,320,2.3,2.3,68,0.00,,SCT,0.00,0.0,WeatherDisplay:10.37,2013-08-16 00:12:00,
2013-08-15 19:17:00,68.1,57.1,30.07,NW,320,1.2,1.2,68,0.00,,SCT,0.00,0.0,WeatherDisplay:10.37,2013-08-16 00:17:00,
2013-08-15 19:22:00,67.6,57.1,30.07,NW,320,1.2,1.2,69,0.00,,SCT,0.00,0.0,WeatherDisplay:10.37,2013-08-16 00:22:00,
2013-08-15 19:27:00,67.1,57.0,30.07,NW,320,1.0,1.0,70,0.00,,SCT,0.00,0.0,WeatherDisplay:10.37,2013-08-16 00:27:00,
2013-08-15 19:32:00,66.6,56.5,30.07,NW,320,2.3,2.3,70,0.00,,SCT,0.00,0.0,WeatherDisplay:10.37,2013-08-16 00:32:00,
2013-08-15 19:38:00,66.4,56.7,30.07,NW,320,0.0,0.0,71,0.00,,SCT,0.00,0.0,WeatherDisplay:10.37,2013-08-16 00:38:00,
2013-08-15 19:43:00,65.8,57.3,30.07,NW,320,0.0,0.0,74,0.00,,SCT,0.00,0.0,WeatherDisplay:10.37,2013-08-16 00:43:00,
2013-08-15 19:48:00,65.2,57.4,30.07,NW,320,0.0,0.0,76,0.00,,SCT,0.00,0.0,WeatherDisplay:10.37,2013-08-16 00:48:00,
2013-08-15 19:53:00,64.7,58.0,30.07,NW,320,2.3,2.3,79,0.00,,SCT,0.00,0.0,WeatherDisplay:10.37,2013-08-16 00:53:00,
2013-08-15 19:58:00,64.2,57.5,30.07,NW,320,0.0,0.0,79,0.00,,SCT,0.00,0.0,WeatherDisplay:10.37,2013-08-16 00:58:00,
2013-08-15 20:04:00,63.9,58.0,30.07,NW,320,0.0,0.0,81,0.00,,SCT,0.00,0.0,WeatherDisplay:10.37,2013-08-16 01:04:00,
2013-08-15 20:09:00,63.4,57.5,30.07,NW,320,0.0,0.0,81,0.00,,SCT,0.00,0.0,WeatherDisplay:10.37,2013-08-16 01:09:00,
2013-08-15 20:14:00,62.9,57.3,30.07,NW,320,0.0,0.0,82,0.00,,SCT,0.00,0.0,WeatherDisplay:10.37,2013-08-16 01:14:00,
2013-08-15 20:19:00,62.6,57.0,30.07,NW,320,0.0,0.0,82,0.00,,SCT,0.00,0.0,WeatherDisplay:10.37,2013-08-16 01:19:00,
2013-08-15 20:24:00,62.1,56.5,30.07,NW,320,0.0,0.0,82,0.00,,SCT,0.00,0.0,WeatherDisplay:10.37,2013-08-16 01:24:00,
2013-08-15 20:29:00,61.8,55.9,30.08,NW,320,1.2,0.0,81,0.00,,SCT,0.00,0.0,WeatherDisplay:10.37,2013-08-16 01:29:00,
2013-08-15 20:34:00,61.6,56.4,30.08,NW,320,1.0,0.0,83,0.00,,SCT,0.00,0.0,WeatherDisplay:10.37,2013-08-16 01:34:00,
2013-08-15 20:39:00,61.3,56.1,30.08,NW,320,0.0,1.0,83,0.00,,SCT,0.00,0.0,WeatherDisplay:10.37,2013-08-16 01:39:00,
2013-08-15 20:44:00,61.0,55.8,30.08,NW,320,0.0,0.0,83,0.00,,SCT,0.00,0.0,WeatherDisplay:10.37,2013-08-16 01:44:00,
2013-08-15 20:49:00,60.7,55.5,30.08,NW,320,0.0,2.0,83,0.00,,SCT,0.00,0.0,WeatherDisplay:10.37,2013-08-16 01:49:00,
2013-08-15 20:54:00,60.4,55.2,30.08,NW,320,1.0,3.0,83,0.00,,SCT,0.00,0.0,WeatherDisplay:10.37,2013-08-16 01:54:00,
2013-08-15 20:59:00,60.2,55.0,30.08,NW,320,1.0,3.0,83,0.00,,SCT,0.00,0.0,WeatherDisplay:10.37,2013-08-16 01:59:00,
2013-08-15 21:04:00,60.3,55.1,30.08,NW,320,1.0,3.0,83,0.00,,SCT,0.00,0.0,WeatherDisplay:10.37,2013-08-16 02:04:00,
2013-08-15 21:09:00,59.9,55.1,30.08,NW,320,2.0,3.0,84,0.00,,SCT,0.00,0.0,WeatherDisplay:10.37,2013-08-16 02:09:00,
2013-08-15 21:14:00,59.4,54.6,30.09,NW,320,2.0,3.0,84,0.00,,SCT,0.00,0.0,WeatherDisplay:10.37,2013-08-16 02:14:00,
2013-08-15 21:19:00,59.0,54.8,30.09,NW,320,2.0,3.0,86,0.00,,SCT,0.00,0.0,WeatherDisplay:10.37,2013-08-16 02:19:00,
2013-08-15 21:24:00,58.9,54.7,30.09,NW,320,2.0,3.0,86,0.00,,SCT,0.00,0.0,WeatherDisplay:10.37,2013-08-16 02:24:00,
2013-08-15 21:29:00,58.6,54.7,30.09,NW,326,3.0,4.0,87,0.00,,SCT,0.00,0.0,WeatherDisplay:10.37,2013-08-16 02:29:00,
2013-08-15 21:34:00,58.4,54.5,30.09,NNW,336,3.0,4.0,87,0.00,,SCT,0.00,0.0,WeatherDisplay:10.37,2013-08-16 02:34:00,
2013-08-15 21:39:00,58.1,54.6,30.09,North,350,5.0,5.0,88,0.00,,SCT,0.00,0.0,WeatherDisplay:10.37,2013-08-16 02:39:00,
2013-08-15 21:44:00,57.9,54.7,30.09,North,360,5.0,5.0,89,0.00,,SCT,0.00,0.0,WeatherDisplay:10.37,2013-08-16 02:44:00,
2013-08-15 21:49:00,57.6,54.4,30.09,North,6,3.0,6.0,89,0.00,,SCT,0.00,0.0,WeatherDisplay:10.37,2013-08-16 02:49:00,
2013-08-15 21:54:00,57.5,54.3,30.09,North,10,3.0,4.0,89,0.00,,SCT,0.00,0.0,WeatherDisplay:10.37,2013-08-16 02:54:00,
2013-08-15 21:59:00,57.3,54.1,30.10,North,11,0.0,4.0,89,0.00,,SCT,0.00,0.0,WeatherDisplay:10.37,2013-08-16 02:59:00,
2013-08-15 22:04:00,57.2,54.3,30.10,North,11,0.0,2.0,90,0.00,,SCT,0.00,0.0,WeatherDisplay:10.37,2013-08-16 03:04:00,
2013-08-15 22:09:00,57.0,54.1,30.10,North,11,0.0,2.0,90,0.00,,SCT,0.00,0.0,WeatherDisplay:10.37,2013-08-16 03:09:00,
2013-08-15 22:14:00,56.9,54.3,30.10,North,11,1.0,2.0,91,0.00,,SCT,0.00,0.0,WeatherDisplay:10.37,2013-08-16 03:14:00,
2013-08-15 22:19:00,56.9,54.3,30.10,North,11,1.0,3.0,91,0.00,,SCT,0.00,0.0,WeatherDisplay:10.37,2013-08-16 03:19:00,
2013-08-15 22:24:00,56.9,54.3,30.10,North,11,0.0,2.0,91,0.00,,SCT,0.00,0.0,WeatherDisplay:10.37,2013-08-16 03:24:00,
2013-08-15 22:29:00,56.7,54.1,30.10,North,11,1.0,2.0,91,0.00,,SCT,0.00,0.0,WeatherDisplay:10.37,2013-08-16 03:29:00,
2013-08-15 22:34:00,56.6,54.3,30.10,North,11,1.0,3.0,92,0.00,,SCT,0.00,0.0,WeatherDisplay:10.37,2013-08-16 03:34:00,
2013-08-15 22:39:00,56.5,54.2,30.10,North,11,2.0,3.0,92,0.00,,SCT,0.00,0.0,WeatherDisplay:10.37,2013-08-16 03:39:00,
2013-08-15 22:44:00,56.3,54.0,30.10,North,11,2.0,3.0,92,0.00,,SCT,0.00,0.0,WeatherDisplay:10.37,2013-08-16 03:44:00,
2013-08-15 22:49:00,56.3,54.0,30.10,North,11,1.0,3.0,92,0.00,,SCT,0.00,0.0,WeatherDisplay:10.37,2013-08-16 03:49:00,
2013-08-15 22:54:00,56.2,53.9,30.10,NNE,13,1.0,3.0,92,0.00,,SCT,0.00,0.0,WeatherDisplay:10.37,2013-08-16 03:54:00,
2013-08-15 22:59:00,56.3,54.3,30.10,NNE,16,1.0,3.0,93,0.00,,SCT,0.00,0.0,WeatherDisplay:10.37,2013-08-16 03:59:00,
2013-08-15 23:01:00,56.3,54.0,30.10,NNE,17,2.3,2.3,92,0.00,,SCT,0.00,0.0,WeatherDisplay:10.37,2013-08-16 04:01:00,
2013-08-15 23:02:00,56.3,54.3,30.10,NNE,17,2.3,2.3,93,0.00,,SCT,0.00,0.0,WeatherDisplay:10.37,2013-08-16 04:02:00,
2013-08-15 23:07:00,56.2,53.9,30.10,NNE,17,1.2,0.0,92,0.00,,SCT,0.00,0.0,WeatherDisplay:10.37,2013-08-16 04:07:00,
2013-08-15 23:13:00,56.0,54.0,30.10,NNE,17,2.3,2.3,93,0.00,,SCT,0.00,0.0,WeatherDisplay:10.37,2013-08-16 04:13:00,
2013-08-15 23:18:00,55.7,53.7,30.10,NNE,17,2.3,2.3,93,0.00,,SCT,0.00,0.0,WeatherDisplay:10.37,2013-08-16 04:18:00,
2013-08-15 23:23:00,55.6,53.6,30.10,NNE,17,3.5,3.5,93,0.00,,SCT,0.00,0.0,WeatherDisplay:10.37,2013-08-16 04:23:00,
2013-08-15 23:28:00,55.4,53.4,30.10,NNE,17,2.3,2.3,93,0.00,,SCT,0.00,0.0,WeatherDisplay:10.37,2013-08-16 04:28:00,
2013-08-15 23:33:00,55.3,53.3,30.10,NNE,17,3.5,3.5,93,0.00,,SCT,0.00,0.0,WeatherDisplay:10.37,2013-08-16 04:33:00,
2013-08-15 23:38:00,55.0,53.0,30.10,NNE,17,3.5,3.5,93,0.00,,SCT,0.00,0.0,WeatherDisplay:10.37,2013-08-16 04:38:00,
2013-08-15 23:43:00,54.8,52.8,30.10,NNE,17,3.5,3.5,93,0.00,,SCT,0.00,0.0,WeatherDisplay:10.37,2013-08-16 04:43:00,
2013-08-15 23:49:00,54.8,52.8,30.10,NNE,23,3.5,3.5,93,0.00,,SCT,0.00,0.0,WeatherDisplay:10.37,2013-08-16 04:49:00,
2013-08-15 23:54:00,54.7,53.0,30.10,NNE,25,3.5,3.5,94,0.00,,SCT,0.00,0.0,WeatherDisplay:10.37,2013-08-16 04:54:00,
2013-08-15 23:59:00,54.7,53.0,30.10,NNE,27,3.5,3.5,94,0.00,,SCT,0.00,0.0,WeatherDisplay:10.37,2013-08-16 04:59:00,